Time;durP1;ratioP1;P1;durP2;ratioP2;P2;SDS_P1;SDS_P2;PMS_P1;PMS_P2;Temp;Humidity;BMP_temperature;BMP_pressure;BME280_temperature;BME280_humidity;BME280_pressure;Samples;Min_cycle;Max_cycle;Signal;HPM_P1;HPM_P2
2023/10/04 00:01:37;;;;;;;8.80;3.50;;;;;;;;;;6242184;28;20053;-65
2023/10/04 00:04:39;;;;;;;9.52;3.45;;;;;;;;;;6243054;28;20041;-64
2023/10/04 00:07:39;;;;;;;9.60;3.17;;;;;;;;;;6241311;28;20088;-64
2023/10/04 00:10:40;;;;;;;10.30;3.53;;;;;;;;;;6244207;28;20053;-65
2023/10/04 00:13:43;;;;;;;8.77;3.00;;;;;;;;;;6242876;28;20405;-65
2023/10/04 00:16:44;;;;;;;11.90;3.30;;;;;;;;;;6241812;28;20055;-64
2023/10/04 00:19:47;;;;;;;11.43;3.65;;;;;;;;;;6240650;28;20050;-66
2023/10/04 00:22:48;;;;;;;9.77;3.20;;;;;;;;;;6242711;28;20556;-65
2023/10/04 00:25:48;;;;;;;14.13;3.58;;;;;;;;;;6254516;28;20052;-66
2023/10/04 00:28:49;;;;;;;10.35;3.38;;;;;;;;;;6243496;28;20115;-66
2023/10/04 00:31:50;;;;;;;11.40;3.40;;;;;;;;;;6242839;28;20042;-65
2023/10/04 00:34:51;;;;;;;9.48;3.30;;;;;;;;;;6242299;28;20507;-66
2023/10/04 00:37:57;;;;;;;11.37;3.47;;;;;;;;;;6241477;28;20049;-67
2023/10/04 00:40:58;;;;;;;10.95;3.72;;;;;;;;;;6240862;28;20649;-65
2023/10/04 00:44:01;;;;;;;12.13;3.75;;;;;;;;;;6241137;28;20053;-63
2023/10/04 00:47:09;;;;;;;10.35;3.53;;;;;;;;;;6242014;28;20041;-66
2023/10/04 00:50:17;;;;;;;11.85;4.00;;;;;;;;;;6239329;28;20056;-65
2023/10/04 00:53:22;;;;;;;11.20;3.13;;;;;;;;;;6241598;28;20041;-64
2023/10/04 00:56:24;;;;;;;9.05;3.05;;;;;;;;;;6242064;28;20033;-64
2023/10/04 00:59:25;;;;;;;7.30;2.70;;;;;;;;;;6239130;28;20471;-64
2023/10/04 01:02:28;;;;;;;9.05;2.80;;;;;;;;;;6239593;28;20053;-64
2023/10/04 01:05:30;;;;;;;11.13;2.97;;;;;;;;;;6242384;28;20537;-62
2023/10/04 01:08:32;;;;;;;7.90;2.72;;;;;;;;;;6243001;28;20503;-66
2023/10/04 01:11:35;;;;;;;6.82;2.38;;;;;;;;;;6241765;28;20041;-66
2023/10/04 01:14:38;;;;;;;9.15;2.40;;;;;;;;;;6246322;28;20315;-66
2023/10/04 01:17:39;;;;;;;8.15;2.38;;;;;;;;;;6247316;28;20049;-65
2023/10/04 01:20:39;;;;;;;8.20;2.58;;;;;;;;;;6241198;28;20096;-63
2023/10/04 01:23:40;;;;;;;7.95;2.58;;;;;;;;;;6246710;28;20485;-66
2023/10/04 01:26:41;;;;;;;7.97;2.78;;;;;;;;;;6245996;28;20049;-67
2023/10/04 01:29:42;;;;;;;7.88;2.50;;;;;;;;;;6248337;28;20044;-66
2023/10/04 01:32:43;;;;;;;8.20;2.20;;;;;;;;;;6248799;28;20046;-67
2023/10/04 01:35:48;;;;;;;6.68;2.10;;;;;;;;;;6247013;28;20049;-66
2023/10/04 01:38:49;;;;;;;5.30;2.20;;;;;;;;;;6245994;28;20045;-68
2023/10/04 01:41:51;;;;;;;7.43;2.35;;;;;;;;;;6246585;28;20049;-67
2023/10/04 01:44:54;;;;;;;9.15;2.70;;;;;;;;;;6246388;28;20052;-67
2023/10/04 01:47:55;;;;;;;8.10;2.70;;;;;;;;;;6245948;28;20385;-67
2023/10/04 01:50:56;;;;;;;6.82;2.60;;;;;;;;;;6243161;28;20049;-65
2023/10/04 01:53:58;;;;;;;8.73;2.38;;;;;;;;;;6246045;28;20065;-66
2023/10/04 01:56:59;;;;;;;6.70;2.25;;;;;;;;;;6245574;28;20140;-64
2023/10/04 02:00:00;;;;;;;8.10;2.10;;;;;;;;;;6244283;28;20060;-67
2023/10/04 02:03:01;;;;;;;7.45;2.25;;;;;;;;;;6245783;28;20232;-67
2023/10/04 02:06:04;;;;;;;8.52;2.25;;;;;;;;;;6246256;28;20053;-66
2023/10/04 02:09:10;;;;;;;8.80;2.20;;;;;;;;;;6253575;28;20041;-68
2023/10/04 02:12:11;;;;;;;8.45;2.72;;;;;;;;;;6261460;28;20048;-66
2023/10/04 02:15:15;;;;;;;9.02;2.67;;;;;;;;;;6249885;28;20099;-66
2023/10/04 02:18:15;;;;;;;9.43;3.08;;;;;;;;;;6245533;28;20070;-66
2023/10/04 02:21:17;;;;;;;9.15;2.88;;;;;;;;;;6245273;28;20050;-67
2023/10/04 02:24:17;;;;;;;8.75;2.63;;;;;;;;;;6245541;28;20041;-68
2023/10/04 02:27:19;;;;;;;6.78;2.70;;;;;;;;;;6245302;28;20566;-62
2023/10/04 02:30:23;;;;;;;5.53;1.90;;;;;;;;;;6245176;28;20416;-68
2023/10/04 02:33:31;;;;;;;7.78;2.63;;;;;;;;;;6248266;28;20079;-65
2023/10/04 02:36:32;;;;;;;6.32;2.35;;;;;;;;;;6242694;28;20423;-67
2023/10/04 02:39:39;;;;;;;9.10;3.00;;;;;;;;;;6243481;28;20107;-65
2023/10/04 02:42:41;;;;;;;9.00;2.78;;;;;;;;;;6244066;28;20045;-66
2023/10/04 02:45:42;;;;;;;7.60;3.15;;;;;;;;;;6243480;28;20444;-68
2023/10/04 02:48:43;;;;;;;6.47;2.78;;;;;;;;;;6247411;28;20049;-68
2023/10/04 02:51:45;;;;;;;6.30;2.80;;;;;;;;;;6245086;28;20056;-67
2023/10/04 02:54:45;;;;;;;;;;;;;;;;;;6256738;28;20045;-65
2023/10/04 02:57:49;;;;;;;9.15;3.28;;;;;;;;;;6243163;28;19925;-67
2023/10/04 03:00:50;;;;;;;7.18;3.00;;;;;;;;;;6242547;28;20053;-67
2023/10/04 03:03:51;;;;;;;10.63;3.22;;;;;;;;;;6245309;28;20483;-68
2023/10/04 03:06:52;;;;;;;7.93;3.05;;;;;;;;;;6243680;28;20736;-66
2023/10/04 03:09:54;;;;;;;10.60;3.30;;;;;;;;;;6250464;28;20383;-68
2023/10/04 03:12:56;;;;;;;7.35;3.28;;;;;;;;;;6243565;28;20042;-65
2023/10/04 03:16:00;;;;;;;10.75;3.22;;;;;;;;;;6244299;28;20057;-66
2023/10/04 03:19:01;;;;;;;7.57;3.20;;;;;;;;;;6243464;28;20075;-65
2023/10/04 03:22:06;;;;;;;9.68;3.05;;;;;;;;;;6242288;28;20136;-65
2023/10/04 03:25:08;;;;;;;8.80;3.47;;;;;;;;;;6243600;28;20045;-67
2023/10/04 03:28:10;;;;;;;9.40;3.08;;;;;;;;;;6244449;28;20491;-63
2023/10/04 03:31:14;;;;;;;8.88;3.10;;;;;;;;;;6244573;28;20042;-68
2023/10/04 03:34:14;;;;;;;13.65;3.63;;;;;;;;;;6241700;28;20484;-65
2023/10/04 03:37:22;;;;;;;9.07;3.15;;;;;;;;;;6244125;28;20053;-67
2023/10/04 03:40:22;;;;;;;7.45;3.30;;;;;;;;;;6242666;28;20076;-67
2023/10/04 03:43:24;;;;;;;10.40;3.60;;;;;;;;;;6245902;28;20045;-68
2023/10/04 03:46:25;;;;;;;5.82;2.83;;;;;;;;;;6245437;28;20190;-66
2023/10/04 03:49:26;;;;;;;9.38;3.33;;;;;;;;;;6243807;28;20041;-68
2023/10/04 03:52:28;;;;;;;10.38;3.33;;;;;;;;;;6242290;28;20049;-67
2023/10/04 03:55:28;;;;;;;8.68;3.03;;;;;;;;;;6243348;28;20132;-67
2023/10/04 03:58:29;;;;;;;13.15;3.72;;;;;;;;;;6244268;28;20401;-66
2023/10/04 04:01:31;;;;;;;9.60;3.13;;;;;;;;;;6251307;28;20116;-65
2023/10/04 04:04:33;;;;;;;9.67;3.33;;;;;;;;;;6244031;28;20047;-67
2023/10/04 04:07:33;;;;;;;9.65;3.53;;;;;;;;;;6247744;28;20045;-68
2023/10/04 04:10:35;;;;;;;10.38;3.53;;;;;;;;;;6243133;28;20108;-68
2023/10/04 04:13:36;;;;;;;13.23;3.42;;;;;;;;;;6241860;28;20045;-66
2023/10/04 04:16:37;;;;;;;11.57;3.67;;;;;;;;;;6241588;28;20050;-67
2023/10/04 04:19:38;;;;;;;9.43;3.63;;;;;;;;;;6242583;28;20448;-66
2023/10/04 04:22:38;;;;;;;6.72;3.20;;;;;;;;;;6238436;28;20045;-66
2023/10/04 04:25:40;;;;;;;14.00;3.50;;;;;;;;;;6240225;28;20049;-67
2023/10/04 04:28:41;;;;;;;9.38;3.40;;;;;;;;;;6254684;28;20526;-67
2023/10/04 04:31:42;;;;;;;7.85;3.15;;;;;;;;;;6253255;28;20049;-63
2023/10/04 04:34:42;;;;;;;9.43;3.33;;;;;;;;;;6248125;28;20163;-65
2023/10/04 04:37:44;;;;;;;9.65;3.15;;;;;;;;;;6253010;28;20045;-67
2023/10/04 04:40:48;;;;;;;9.13;3.05;;;;;;;;;;6238858;28;20389;-67
2023/10/04 04:43:49;;;;;;;8.93;2.90;;;;;;;;;;6242704;28;20048;-68
2023/10/04 04:46:51;;;;;;;8.63;2.83;;;;;;;;;;6242258;28;20487;-67
2023/10/04 04:49:53;;;;;;;8.50;3.03;;;;;;;;;;6262513;28;20630;-67
2023/10/04 04:52:53;;;;;;;10.82;2.90;;;;;;;;;;6243545;28;20037;-68
2023/10/04 04:55:55;;;;;;;12.90;3.10;;;;;;;;;;6243059;28;20650;-67
2023/10/04 04:59:07;;;;;;;9.52;2.83;;;;;;;;;;6247900;28;20091;-67
2023/10/04 05:02:08;;;;;;;8.63;2.58;;;;;;;;;;6244156;28;20053;-67
2023/10/04 05:05:11;;;;;;;7.90;2.78;;;;;;;;;;6244486;28;20041;-67
2023/10/04 05:08:12;;;;;;;11.80;2.70;;;;;;;;;;6248290;28;20073;-66
2023/10/04 05:11:12;;;;;;;11.75;3.67;;;;;;;;;;6247711;28;20033;-67
2023/10/04 05:14:13;;;;;;;8.90;2.92;;;;;;;;;;6246001;28;20049;-67
2023/10/04 05:17:14;;;;;;;7.85;3.53;;;;;;;;;;6246433;28;20048;-67
2023/10/04 05:20:19;;;;;;;9.05;2.80;;;;;;;;;;6246807;28;20060;-65
2023/10/04 05:23:22;;;;;;;12.40;2.80;;;;;;;;;;6246440;28;20041;-68
2023/10/04 05:26:23;;;;;;;11.65;3.40;;;;;;;;;;6247085;28;20041;-67
2023/10/04 05:29:23;;;;;;;8.30;3.10;;;;;;;;;;6246826;28;20530;-64
2023/10/04 05:32:24;;;;;;;8.38;3.33;;;;;;;;;;6246369;28;20493;-66
2023/10/04 05:35:26;;;;;;;12.18;4.13;;;;;;;;;;6244829;28;20053;-67
2023/10/04 05:38:28;;;;;;;14.32;3.53;;;;;;;;;;6247805;28;20037;-65
2023/10/04 05:41:31;;;;;;;9.85;3.13;;;;;;;;;;6246404;28;20140;-67
2023/10/04 05:44:31;;;;;;;10.02;3.38;;;;;;;;;;6246560;28;20052;-67
2023/10/04 05:47:32;;;;;;;10.80;3.20;;;;;;;;;;6247347;28;20046;-66
2023/10/04 05:50:33;;;;;;;9.03;3.10;;;;;;;;;;6246241;28;20047;-66
2023/10/04 05:53:34;;;;;;;14.48;3.55;;;;;;;;;;6245650;28;20049;-67
2023/10/04 05:56:34;;;;;;;11.23;3.17;;;;;;;;;;6245449;28;20499;-63
2023/10/04 05:59:35;;;;;;;9.27;3.15;;;;;;;;;;6247463;28;20044;-67
2023/10/04 06:02:35;;;;;;;11.48;3.38;;;;;;;;;;6246242;28;20068;-68
2023/10/04 06:05:38;;;;;;;11.50;3.40;;;;;;;;;;6244752;28;20111;-68
2023/10/04 06:08:38;;;;;;;10.07;3.33;;;;;;;;;;6244679;28;20053;-68
2023/10/04 06:11:39;;;;;;;11.10;2.90;;;;;;;;;;6247224;28;20045;-66
2023/10/04 06:14:40;;;;;;;10.18;3.55;;;;;;;;;;6243329;28;20463;-67
2023/10/04 06:17:44;;;;;;;12.35;3.60;;;;;;;;;;6245324;28;20053;-66
2023/10/04 06:20:45;;;;;;;9.00;3.25;;;;;;;;;;6245759;28;20488;-66
2023/10/04 06:23:46;;;;;;;9.83;3.60;;;;;;;;;;6245103;28;20511;-67
2023/10/04 06:26:47;;;;;;;10.90;3.15;;;;;;;;;;6245505;28;20061;-66
2023/10/04 06:29:47;;;;;;;13.98;3.40;;;;;;;;;;6244278;28;20053;-66
2023/10/04 06:32:52;;;;;;;9.25;3.17;;;;;;;;;;6244050;28;20423;-65
2023/10/04 06:35:53;;;;;;;11.77;3.97;;;;;;;;;;6243868;28;20044;-67
2023/10/04 06:38:54;;;;;;;9.20;3.80;;;;;;;;;;6245599;28;20498;-66
2023/10/04 06:41:55;;;;;;;11.77;3.40;;;;;;;;;;6245573;28;20047;-66
2023/10/04 06:44:56;;;;;;;12.10;3.00;;;;;;;;;;6243459;28;20046;-68
2023/10/04 06:47:58;;;;;;;9.25;2.70;;;;;;;;;;6244924;28;20057;-67
2023/10/04 06:50:59;;;;;;;8.85;2.75;;;;;;;;;;6243949;28;20041;-67
2023/10/04 06:54:05;;;;;;;10.05;2.78;;;;;;;;;;6244313;28;20049;-68
2023/10/04 06:57:05;;;;;;;12.65;3.00;;;;;;;;;;6244212;28;20496;-67
2023/10/04 07:00:13;;;;;;;10.00;2.75;;;;;;;;;;6245016;28;20037;-66
2023/10/04 07:03:14;;;;;;;8.93;2.92;;;;;;;;;;6244478;28;20513;-68
2023/10/04 07:06:15;;;;;;;13.30;2.95;;;;;;;;;;6244284;28;20045;-67
2023/10/04 07:09:16;;;;;;;10.02;2.60;;;;;;;;;;6243783;28;20053;-66
2023/10/04 07:12:16;;;;;;;9.07;3.00;;;;;;;;;;6246195;28;20542;-67
2023/10/04 07:15:18;;;;;;;6.65;2.63;;;;;;;;;;6244076;28;20131;-68
2023/10/04 07:18:18;;;;;;;9.47;2.43;;;;;;;;;;6255822;28;20049;-68
2023/10/04 07:21:19;;;;;;;12.07;3.10;;;;;;;;;;6244047;28;20168;-66
2023/10/04 07:24:19;;;;;;;10.38;2.65;;;;;;;;;;6242139;28;20056;-68
2023/10/04 07:27:20;;;;;;;8.32;2.42;;;;;;;;;;6242506;28;20120;-66
2023/10/04 07:30:22;;;;;;;8.02;2.55;;;;;;;;;;6241979;28;20221;-67
2023/10/04 07:33:22;;;;;;;9.15;2.53;;;;;;;;;;6244042;28;20049;-65
2023/10/04 07:36:23;;;;;;;14.45;3.13;;;;;;;;;;6243120;28;20397;-67
2023/10/04 07:39:23;;;;;;;7.93;2.50;;;;;;;;;;6243838;28;20069;-67
2023/10/04 07:42:26;;;;;;;10.95;2.83;;;;;;;;;;6243548;28;20053;-67
2023/10/04 07:45:30;;;;;;;9.40;2.72;;;;;;;;;;6243973;28;20049;-68
2023/10/04 07:48:31;;;;;;;7.45;2.90;;;;;;;;;;6243534;28;20348;-67
2023/10/04 07:51:32;;;;;;;6.22;2.35;;;;;;;;;;6243489;28;20087;-67
2023/10/04 07:54:34;;;;;;;6.78;3.17;;;;;;;;;;6242263;28;20045;-69
2023/10/04 07:57:36;;;;;;;7.40;2.30;;;;;;;;;;6241530;28;20045;-67
2023/10/04 08:00:36;;;;;;;9.23;2.75;;;;;;;;;;6243295;28;20053;-68
2023/10/04 08:03:37;;;;;;;9.15;2.75;;;;;;;;;;6243420;28;20083;-68
2023/10/04 08:06:40;;;;;;;12.18;3.20;;;;;;;;;;6242710;28;20396;-67
2023/10/04 08:09:41;;;;;;;8.32;2.28;;;;;;;;;;6242810;28;20045;-68
2023/10/04 08:12:45;;;;;;;7.65;2.25;;;;;;;;;;6241698;28;20130;-66
2023/10/04 08:15:46;;;;;;;10.13;3.25;;;;;;;;;;6241258;28;20073;-67
2023/10/04 08:18:46;;;;;;;7.22;2.20;;;;;;;;;;6244741;28;20037;-67
2023/10/04 08:21:47;;;;;;;7.95;2.60;;;;;;;;;;6243181;28;20568;-62
2023/10/04 08:24:49;;;;;;;8.85;2.72;;;;;;;;;;6242376;28;20049;-61
2023/10/04 08:27:50;;;;;;;9.70;2.40;;;;;;;;;;6240396;28;20492;-67
2023/10/04 08:30:51;;;;;;;8.88;2.55;;;;;;;;;;6243278;28;20052;-68
2023/10/04 08:33:52;;;;;;;9.10;2.63;;;;;;;;;;6243272;28;20124;-66
2023/10/04 08:36:53;;;;;;;7.55;2.63;;;;;;;;;;6241970;28;20041;-68
2023/10/04 08:39:53;;;;;;;8.82;2.15;;;;;;;;;;6241665;28;20127;-67
2023/10/04 08:42:55;;;;;;;7.93;3.08;;;;;;;;;;6242373;28;20068;-66
2023/10/04 08:45:56;;;;;;;7.38;2.35;;;;;;;;;;6242076;28;20051;-68
2023/10/04 08:48:58;;;;;;;7.43;2.47;;;;;;;;;;6240785;28;20049;-64
2023/10/04 08:52:01;;;;;;;6.75;2.40;;;;;;;;;;6243119;28;20045;-67
2023/10/04 08:55:07;;;;;;;10.27;2.75;;;;;;;;;;6245731;28;20045;-68
2023/10/04 08:58:09;;;;;;;8.95;2.58;;;;;;;;;;6241447;28;20558;-67
2023/10/04 09:01:11;;;;;;;5.50;2.35;;;;;;;;;;6241974;28;20583;-68
2023/10/04 09:04:13;;;;;;;5.88;2.25;;;;;;;;;;6243494;28;20136;-68
2023/10/04 09:07:17;;;;;;;11.13;2.30;;;;;;;;;;6241069;28;20053;-69
2023/10/04 09:10:19;;;;;;;8.07;2.10;;;;;;;;;;6243976;28;20034;-67
2023/10/04 09:13:19;;;;;;;5.95;2.25;;;;;;;;;;6240366;28;20421;-62
2023/10/04 09:16:31;;;;;;;7.68;2.55;;;;;;;;;;6240075;28;20042;-68
2023/10/04 09:19:32;;;;;;;9.13;2.15;;;;;;;;;;6241264;28;20049;-68
2023/10/04 09:22:33;;;;;;;7.03;2.20;;;;;;;;;;6240760;28;20489;-67
2023/10/04 09:25:38;;;;;;;6.57;2.05;;;;;;;;;;6241434;28;20041;-68
2023/10/04 09:28:40;;;;;;;6.13;2.20;;;;;;;;;;6240751;28;20041;-68
2023/10/04 09:31:55;;;;;;;5.32;2.00;;;;;;;;;;6240826;28;20168;-67
2023/10/04 09:34:57;;;;;;;7.07;2.50;;;;;;;;;;6240082;28;20120;-68
2023/10/04 09:38:15;;;;;;;8.65;2.38;;;;;;;;;;6238612;28;20052;-69
2023/10/04 09:41:15;;;;;;;6.82;2.42;;;;;;;;;;6243195;28;20140;-67
2023/10/04 09:44:23;;;;;;;6.00;2.40;;;;;;;;;;6246219;28;20484;-68
2023/10/04 09:47:36;;;;;;;5.10;2.38;;;;;;;;;;6246421;28;20049;-68
2023/10/04 09:50:37;;;;;;;8.10;2.88;;;;;;;;;;6243669;28;20060;-69
2023/10/04 09:53:41;;;;;;;5.15;2.30;;;;;;;;;;6245872;28;20073;-67
2023/10/04 09:56:41;;;;;;;8.05;2.90;;;;;;;;;;6247594;28;20064;-65
2023/10/04 09:59:44;;;;;;;9.10;2.42;;;;;;;;;;6245751;28;20500;-64
2023/10/04 10:02:48;;;;;;;8.25;2.45;;;;;;;;;;6245006;28;20089;-67
2023/10/04 10:05:50;;;;;;;6.97;2.83;;;;;;;;;;6245532;28;21425;-67
2023/10/04 10:08:55;;;;;;;8.55;2.90;;;;;;;;;;6244605;28;20045;-66
2023/10/04 10:11:58;;;;;;;7.65;2.35;;;;;;;;;;6242553;28;20480;-66
2023/10/04 10:15:03;;;;;;;7.75;2.65;;;;;;;;;;6245679;28;20396;-64
2023/10/04 10:18:04;;;;;;;7.15;2.80;;;;;;;;;;6245075;28;20045;-66
2023/10/04 10:21:05;;;;;;;6.72;2.55;;;;;;;;;;6244918;28;20085;-66
2023/10/04 10:24:14;;;;;;;6.78;2.50;;;;;;;;;;6245059;28;20041;-65
2023/10/04 10:27:18;;;;;;;6.07;2.40;;;;;;;;;;6254217;28;20049;-64
2023/10/04 10:30:19;;;;;;;7.28;2.60;;;;;;;;;;6247097;28;20580;-66
2023/10/04 10:33:22;;;;;;;8.63;2.60;;;;;;;;;;6245435;28;20524;-64
2023/10/04 10:36:31;;;;;;;8.43;2.83;;;;;;;;;;6245435;28;20050;-65
2023/10/04 10:39:42;;;;;;;6.95;2.42;;;;;;;;;;6243553;28;20060;-64
2023/10/04 10:43:08;;;;;;;9.52;2.78;;;;;;;;;;6247730;28;20063;-68
2023/10/04 10:46:52;;;;;;;6.18;2.53;;;;;;;;;;6244244;28;20045;-65
2023/10/04 10:50:01;;;;;;;7.20;2.85;;;;;;;;;;6241711;28;20053;-63
2023/10/04 10:53:06;;;;;;;6.93;2.85;;;;;;;;;;6243374;28;20443;-68
2023/10/04 10:56:07;;;;;;;8.60;2.97;;;;;;;;;;6256797;28;20044;-66
2023/10/04 10:59:08;;;;;;;5.88;2.90;;;;;;;;;;6242389;28;20045;-67
2023/10/04 11:02:09;;;;;;;6.15;2.92;;;;;;;;;;6242865;28;20053;-65
2023/10/04 11:05:12;;;;;;;8.35;3.42;;;;;;;;;;6243385;28;20408;-61
2023/10/04 11:08:13;;;;;;;6.18;2.60;;;;;;;;;;6244157;28;20053;-64
2023/10/04 11:11:13;;;;;;;8.23;3.05;;;;;;;;;;6243482;28;20033;-65
2023/10/04 11:14:16;;;;;;;5.78;2.60;;;;;;;;;;6245531;28;20056;-65
2023/10/04 11:17:16;;;;;;;;;;;;;;;;;;6244402;28;20046;-66
2023/10/04 11:20:17;;;;;;;6.22;2.95;;;;;;;;;;6241861;28;20396;-66
2023/10/04 11:23:19;;;;;;;11.13;3.45;;;;;;;;;;6243824;28;20049;-67
2023/10/04 11:26:20;;;;;;;;;;;;;;;;;;6242837;28;20049;-67
2023/10/04 11:29:21;;;;;;;5.55;2.28;;;;;;;;;;6243522;28;19932;-67
2023/10/04 11:32:21;;;;;;;7.85;2.55;;;;;;;;;;6243940;28;20049;-66
2023/10/04 11:35:22;;;;;;;8.38;3.33;;;;;;;;;;6244644;28;20045;-67
2023/10/04 11:38:24;;;;;;;7.47;3.08;;;;;;;;;;6242782;28;20073;-65
2023/10/04 11:41:29;;;;;;;;;;;;;;;;;;6244682;28;20091;-63
2023/10/04 11:44:34;;;;;;;8.23;2.70;;;;;;;;;;6243947;28;19920;-66
2023/10/04 11:47:34;;;;;;;6.82;2.72;;;;;;;;;;6243125;28;20045;-65
2023/10/04 11:50:45;;;;;;;7.97;3.20;;;;;;;;;;6241230;28;20148;-67
2023/10/04 11:53:46;;;;;;;7.70;3.42;;;;;;;;;;6259460;28;20129;-65
2023/10/04 11:56:46;;;;;;;8.70;3.00;;;;;;;;;;6250659;28;20049;-63
2023/10/04 11:59:47;;;;;;;5.63;3.00;;;;;;;;;;6249336;28;21272;-65
2023/10/04 12:02:49;;;;;;;10.90;2.97;;;;;;;;;;6247180;28;20060;-67
2023/10/04 12:05:49;;;;;;;10.00;3.30;;;;;;;;;;6252282;28;20080;-60
2023/10/04 12:08:53;;;;;;;7.75;2.88;;;;;;;;;;6253670;28;20041;-64
2023/10/04 12:11:56;;;;;;;6.63;3.00;;;;;;;;;;6252908;28;20053;-65
2023/10/04 12:14:57;;;;;;;8.98;2.95;;;;;;;;;;6251612;28;20464;-63
2023/10/04 12:17:58;;;;;;;6.72;2.60;;;;;;;;;;6251218;28;20064;-69
2023/10/04 12:20:59;;;;;;;10.90;3.30;;;;;;;;;;6252762;28;20060;-61
2023/10/04 12:23:59;;;;;;;7.55;3.00;;;;;;;;;;6252125;28;20049;-65
2023/10/04 12:27:00;;;;;;;11.88;3.10;;;;;;;;;;6250435;28;20061;-64
2023/10/04 12:30:01;;;;;;;11.65;3.38;;;;;;;;;;6252531;28;20053;-64
2023/10/04 12:33:02;;;;;;;12.55;3.75;;;;;;;;;;6250518;28;20076;-63
2023/10/04 12:36:04;;;;;;;8.90;3.10;;;;;;;;;;6250475;28;20052;-61
2023/10/04 12:39:06;;;;;;;11.88;3.20;;;;;;;;;;6251996;28;20144;-64
2023/10/04 12:42:08;;;;;;;9.52;2.78;;;;;;;;;;6253321;28;20037;-66
2023/10/04 12:45:10;;;;;;;;;;;;;;;;;;6252970;28;20719;-64
2023/10/04 12:48:16;;;;;;;9.32;2.95;;;;;;;;;;6250687;28;19928;-63
2023/10/04 12:51:17;;;;;;;10.13;3.20;;;;;;;;;;6251116;28;20541;-67
2023/10/04 12:54:23;;;;;;;10.85;3.20;;;;;;;;;;6254035;28;20041;-67
2023/10/04 12:57:24;;;;;;;12.98;4.20;;;;;;;;;;6250208;28;20510;-63
2023/10/04 13:00:25;;;;;;;11.80;3.67;;;;;;;;;;6248887;28;20045;-63
2023/10/04 13:03:25;;;;;;;14.52;3.47;;;;;;;;;;6250995;28;20049;-64
2023/10/04 13:06:28;;;;;;;15.02;4.68;;;;;;;;;;6248956;28;20103;-64
2023/10/04 13:09:32;;;;;;;13.77;3.80;;;;;;;;;;6251923;28;20111;-66
2023/10/04 13:12:33;;;;;;;9.07;3.45;;;;;;;;;;6251885;28;20056;-63
2023/10/04 13:15:34;;;;;;;9.05;3.58;;;;;;;;;;6252219;28;20154;-66
2023/10/04 13:18:35;;;;;;;8.10;3.17;;;;;;;;;;6252592;28;20136;-65
2023/10/04 13:21:37;;;;;;;9.98;3.38;;;;;;;;;;6255006;28;20305;-67
2023/10/04 13:24:38;;;;;;;11.38;3.83;;;;;;;;;;6258977;28;20045;-61
2023/10/04 13:27:38;;;;;;;11.10;3.38;;;;;;;;;;6253518;28;20483;-67
2023/10/04 13:30:39;;;;;;;12.90;4.05;;;;;;;;;;6255773;28;20088;-65
2023/10/04 13:33:39;;;;;;;11.85;3.78;;;;;;;;;;6256675;28;20199;-66
2023/10/04 13:36:40;;;;;;;10.73;3.63;;;;;;;;;;6256094;28;20052;-64
2023/10/04 13:39:41;;;;;;;11.70;3.80;;;;;;;;;;6258487;28;20103;-62
2023/10/04 13:42:44;;;;;;;12.52;3.78;;;;;;;;;;6254586;28;20116;-61
2023/10/04 13:45:45;;;;;;;13.43;3.80;;;;;;;;;;6257435;28;20049;-65
2023/10/04 13:48:46;;;;;;;12.60;4.10;;;;;;;;;;6255912;28;20045;-65
2023/10/04 13:51:47;;;;;;;13.65;3.90;;;;;;;;;;6256091;28;20060;-66
2023/10/04 13:54:51;;;;;;;13.40;4.73;;;;;;;;;;6255840;28;20140;-67
2023/10/04 13:57:55;;;;;;;12.70;4.10;;;;;;;;;;6252617;28;20051;-64
2023/10/04 14:01:02;;;;;;;13.35;4.43;;;;;;;;;;6253163;28;20064;-68
2023/10/04 14:04:03;;;;;;;15.50;5.32;;;;;;;;;;6253365;28;20068;-63
2023/10/04 14:07:04;;;;;;;13.20;4.65;;;;;;;;;;6256412;28;20496;-67
2023/10/04 14:10:10;;;;;;;15.52;4.28;;;;;;;;;;6256116;28;20447;-66
2023/10/04 14:13:11;;;;;;;10.75;4.43;;;;;;;;;;6252173;28;20064;-67
2023/10/04 14:16:12;;;;;;;9.98;4.55;;;;;;;;;;6254892;28;20051;-65
2023/10/04 14:19:13;;;;;;;12.18;3.78;;;;;;;;;;6256699;28;20053;-66
2023/10/04 14:22:14;;;;;;;13.17;4.57;;;;;;;;;;6257109;28;20234;-65
2023/10/04 14:25:15;;;;;;;13.57;3.83;;;;;;;;;;6258039;28;20048;-63
2023/10/04 14:28:17;;;;;;;13.83;4.63;;;;;;;;;;6252284;28;20043;-68
2023/10/04 14:31:22;;;;;;;15.63;4.95;;;;;;;;;;6255148;28;20171;-69
2023/10/04 14:34:23;;;;;;;13.65;4.80;;;;;;;;;;6252401;28;20105;-64
2023/10/04 14:37:23;;;;;;;11.57;3.83;;;;;;;;;;6254781;28;20057;-63
2023/10/04 14:40:26;;;;;;;11.77;4.25;;;;;;;;;;6256871;28;20791;-68
2023/10/04 14:43:32;;;;;;;11.93;4.45;;;;;;;;;;6253252;28;20075;-63
2023/10/04 14:46:33;;;;;;;11.43;4.25;;;;;;;;;;6254122;28;20218;-63
2023/10/04 14:49:34;;;;;;;11.00;3.53;;;;;;;;;;6257855;28;21175;-62
2023/10/04 14:52:38;;;;;;;13.55;4.72;;;;;;;;;;6256665;28;20083;-66
2023/10/04 14:55:38;;;;;;;11.82;4.38;;;;;;;;;;6255279;28;20683;-65
2023/10/04 14:58:39;;;;;;;13.90;4.20;;;;;;;;;;6250584;28;20081;-64
2023/10/04 15:01:39;;;;;;;13.82;4.65;;;;;;;;;;6253339;28;20519;-68
2023/10/04 15:04:40;;;;;;;12.02;4.30;;;;;;;;;;6256623;28;20053;-61
2023/10/04 15:07:41;;;;;;;14.73;5.17;;;;;;;;;;6251547;28;20056;-67
2023/10/04 15:10:41;;;;;;;13.57;4.73;;;;;;;;;;6253093;28;20052;-65
2023/10/04 15:13:42;;;;;;;12.97;4.93;;;;;;;;;;6251315;28;20072;-68
2023/10/04 15:16:43;;;;;;;10.15;5.00;;;;;;;;;;6250782;28;20033;-64
2023/10/04 15:19:44;;;;;;;12.73;4.78;;;;;;;;;;6257659;28;20052;-66
2023/10/04 15:22:45;;;;;;;15.80;4.30;;;;;;;;;;6256970;28;20057;-63
2023/10/04 15:25:45;;;;;;;15.43;4.87;;;;;;;;;;6256275;28;20071;-66
2023/10/04 15:28:47;;;;;;;15.70;4.57;;;;;;;;;;6256525;28;20080;-63
2023/10/04 15:31:47;;;;;;;11.80;5.07;;;;;;;;;;6254163;28;20053;-70
2023/10/04 15:34:48;;;;;;;16.40;4.93;;;;;;;;;;6255828;28;20365;-64
2023/10/04 15:37:52;;;;;;;14.88;4.32;;;;;;;;;;6254707;28;20049;-68
2023/10/04 15:40:52;;;;;;;14.20;4.25;;;;;;;;;;6255428;28;21127;-66
2023/10/04 15:43:53;;;;;;;13.25;4.80;;;;;;;;;;6256104;28;20585;-67
2023/10/04 15:46:54;;;;;;;11.40;4.55;;;;;;;;;;6256629;28;20476;-68
2023/10/04 15:49:54;;;;;;;12.13;4.57;;;;;;;;;;6258160;28;20100;-68
2023/10/04 15:52:55;;;;;;;12.27;5.20;;;;;;;;;;6256042;28;20057;-65
2023/10/04 15:55:56;;;;;;;12.27;4.85;;;;;;;;;;6257049;28;20053;-63
2023/10/04 15:58:57;;;;;;;13.02;4.60;;;;;;;;;;6256340;28;20049;-65
2023/10/04 16:01:57;;;;;;;16.73;5.35;;;;;;;;;;6254479;28;20044;-70
2023/10/04 16:04:58;;;;;;;22.67;8.77;;;;;;;;;;6256818;28;20045;-67
2023/10/04 16:07:58;;;;;;;31.48;16.23;;;;;;;;;;6252946;28;20045;-65
2023/10/04 16:10:59;;;;;;;32.10;16.90;;;;;;;;;;6255841;28;20049;-66
2023/10/04 16:14:00;;;;;;;29.85;16.35;;;;;;;;;;6256342;28;20049;-64
2023/10/04 16:17:00;;;;;;;30.75;15.80;;;;;;;;;;6249339;28;20056;-63
2023/10/04 16:20:06;;;;;;;39.03;18.40;;;;;;;;;;6254794;28;20735;-66
2023/10/04 16:23:07;;;;;;;22.42;10.13;;;;;;;;;;6254658;28;20055;-68
2023/10/04 16:26:11;;;;;;;26.92;10.25;;;;;;;;;;6254703;28;20052;-67
2023/10/04 16:29:12;;;;;;;20.48;9.68;;;;;;;;;;6257099;28;20056;-67
2023/10/04 16:32:12;;;;;;;26.17;12.07;;;;;;;;;;6253892;28;20052;-68
2023/10/04 16:35:19;;;;;;;46.30;18.52;;;;;;;;;;6256939;28;20711;-63
2023/10/04 16:38:20;;;;;;;46.00;19.95;;;;;;;;;;6251538;28;20049;-67
2023/10/04 16:41:20;;;;;;;40.40;18.00;;;;;;;;;;6257276;28;20053;-67
2023/10/04 16:44:23;;;;;;;30.30;14.80;;;;;;;;;;6255384;28;20052;-67
2023/10/04 16:47:24;;;;;;;30.92;13.80;;;;;;;;;;6250578;28;20049;-62
2023/10/04 16:50:25;;;;;;;18.30;8.63;;;;;;;;;;6255136;28;20076;-68
2023/10/04 16:53:26;;;;;;;19.58;9.38;;;;;;;;;;6255193;28;20080;-61
2023/10/04 16:56:26;;;;;;;23.17;12.65;;;;;;;;;;6251107;28;20048;-64
2023/10/04 16:59:27;;;;;;;24.40;12.13;;;;;;;;;;6256557;28;20090;-62
2023/10/04 17:02:28;;;;;;;25.77;12.32;;;;;;;;;;6256128;28;20049;-60
2023/10/04 17:05:29;;;;;;;38.78;17.67;;;;;;;;;;6256154;28;20139;-63
2023/10/04 17:08:32;;;;;;;40.80;17.52;;;;;;;;;;6253027;28;20048;-63
2023/10/04 17:11:34;;;;;;;38.55;16.48;;;;;;;;;;6256166;28;20071;-64
2023/10/04 17:14:34;;;;;;;37.40;17.02;;;;;;;;;;6255385;28;20096;-62
2023/10/04 17:17:35;;;;;;;27.92;14.20;;;;;;;;;;6252452;28;20052;-61
2023/10/04 17:20:37;;;;;;;27.70;13.63;;;;;;;;;;6253455;28;20473;-62
2023/10/04 17:23:37;;;;;;;29.00;14.00;;;;;;;;;;6253637;28;20098;-65
2023/10/04 17:26:39;;;;;;;50.58;23.63;;;;;;;;;;6252760;28;20057;-64
2023/10/04 17:29:41;;;;;;;37.53;16.45;;;;;;;;;;6254182;28;20049;-67
2023/10/04 17:32:45;;;;;;;;;;;;;;;;;;6263389;28;20048;-66
2023/10/04 17:35:47;;;;;;;34.85;15.07;;;;;;;;;;6254136;28;19929;-64
2023/10/04 17:38:47;;;;;;;33.97;12.73;;;;;;;;;;6267803;28;20404;-67
2023/10/04 17:41:48;;;;;;;138.70;33.55;;;;;;;;;;6255910;28;20148;-63
2023/10/04 17:44:49;;;;;;;127.60;33.35;;;;;;;;;;6254409;28;20560;-64
2023/10/04 17:47:50;;;;;;;73.72;23.45;;;;;;;;;;6251747;28;20542;-64
2023/10/04 17:50:51;;;;;;;67.47;19.73;;;;;;;;;;6255867;28;20045;-64
2023/10/04 17:53:51;;;;;;;67.97;22.20;;;;;;;;;;6254307;28;20191;-65
2023/10/04 17:56:52;;;;;;;63.40;21.27;;;;;;;;;;6251995;28;20053;-67
2023/10/04 17:59:53;;;;;;;56.72;21.40;;;;;;;;;;6254855;28;20520;-66
2023/10/04 18:02:53;;;;;;;61.22;21.13;;;;;;;;;;6255590;28;20523;-62
2023/10/04 18:05:54;;;;;;;52.70;20.67;;;;;;;;;;6258922;28;20176;-62